createdAt,value
2023-01-01T00:02:24.630Z,44.42
2023-01-01T00:04:51.555Z,8.73
2023-01-01T00:07:18.272Z,12.93
2023-01-01T00:10:14.088Z,19.30
2023-01-01T00:12:40.823Z,18.13
2023-01-01T00:15:08.188Z,21.80
2023-01-01T00:17:34.949Z,22.85
2023-01-01T00:20:01.697Z,21.98
2023-01-01T00:22:53.256Z,27.90
2023-01-01T00:25:15.295Z,53.30
2023-01-01T00:27:42.799Z,83.25
2023-01-01T00:30:11.254Z,95.40
2023-01-01T00:32:38.309Z,74.50
2023-01-01T00:35:05.779Z,47.50
2023-01-01T00:37:32.817Z,47.50
2023-01-01T00:39:59.643Z,52.90
2023-01-01T00:42:26.496Z,50.03
2023-01-01T00:44:53.264Z,51.38
2023-01-01T00:47:20.025Z,53.65
2023-01-01T00:49:46.818Z,56.15
2023-01-01T00:52:13.820Z,38.58
2023-01-01T00:54:40.615Z,44.95
2023-01-01T00:57:07.365Z,39.00
2023-01-01T00:59:34.165Z,54.50
2023-01-01T01:02:01.383Z,55.63
2023-01-01T01:04:28.362Z,114.05
2023-01-01T01:06:55.254Z,87.60
2023-01-01T01:09:22.040Z,60.90
2023-01-01T01:11:50.330Z,49.83
2023-01-01T01:14:17.096Z,89.15
2023-01-01T01:16:43.895Z,47.42
2023-01-01T01:19:15.283Z,57.13
2023-01-01T01:21:44.296Z,59.60
2023-01-01T01:24:11.346Z,72.88
2023-01-01T01:26:38.082Z,74.70
2023-01-01T01:29:05.254Z,67.38
2023-01-01T01:31:34.635Z,48.60
2023-01-01T01:34:02.333Z,49.15
2023-01-01T01:36:29.667Z,54.75
2023-01-01T01:38:57.903Z,72.63
2023-01-01T01:41:28.986Z,68.32
2023-01-01T01:44:27.617Z,101.82
2023-01-01T01:46:54.461Z,66.50
2023-01-01T01:49:30.328Z,85.47
2023-01-01T01:51:58.163Z,82.78
2023-01-01T01:54:28.113Z,94.57
2023-01-01T01:57:02.800Z,117.20
2023-01-01T01:59:39.276Z,116.90
2023-01-01T02:02:17.057Z,143.55
2023-01-01T02:04:44.381Z,115.22
2023-01-01T02:07:14.396Z,115.90
2023-01-01T02:09:41.791Z,111.50
2023-01-01T02:12:08.686Z,96.55
2023-01-01T02:14:35.552Z,105.00
2023-01-01T02:17:20.604Z,91.50
2023-01-01T02:20:02.397Z,79.30
2023-01-01T02:22:36.166Z,96.32
2023-01-01T02:25:21.059Z,92.55
2023-01-01T02:28:04.130Z,84.15
2023-01-01T02:33:12.317Z,101.22
2023-01-01T02:35:44.419Z,71.93
2023-01-01T02:38:30.706Z,84.13
2023-01-01T02:41:03.177Z,119.43
2023-01-01T02:43:29.916Z,73.32
2023-01-01T02:45:57.304Z,103.25
2023-01-01T02:48:47.896Z,71.43
2023-01-01T02:51:14.541Z,86.63
2023-01-01T02:54:08.882Z,74.45
2023-01-01T02:56:48.626Z,93.03
2023-01-01T03:00:02.565Z,87.15
2023-01-01T03:02:57.163Z,61.35
2023-01-01T03:06:22.373Z,65.97
2023-01-01T03:09:28.848Z,65.05
2023-01-01T03:12:43.875Z,89.93
2023-01-01T03:15:24.598Z,52.67
2023-01-01T03:18:14.147Z,50.28
2023-01-01T03:20:45.901Z,54.38
2023-01-01T03:23:19.285Z,63.28
2023-01-01T03:25:50.977Z,48.80
2023-01-01T03:28:26.504Z,50.67
2023-01-01T03:30:54.099Z,45.05
2023-01-01T03:33:33.182Z,42.13
2023-01-01T03:36:25.320Z,31.85
2023-01-01T03:38:57.199Z,40.42
2023-01-01T03:41:40.756Z,55.67
2023-01-01T03:44:15.543Z,42.00
2023-01-01T03:46:42.682Z,64.93
2023-01-01T03:49:11.989Z,48.88
2023-01-01T03:51:47.457Z,46.80
2023-01-01T03:54:58.773Z,42.47
2023-01-01T03:57:50.160Z,46.00
2023-01-01T04:00:23.842Z,49.72
2023-01-01T04:03:08.504Z,54.25
2023-01-01T04:05:41.537Z,47.22
2023-01-01T04:10:41.717Z,31.27
2023-01-01T04:15:36.199Z,32.90
2023-01-01T04:18:04.043Z,33.55
2023-01-01T04:20:31.696Z,35.17
2023-01-01T04:23:02.565Z,39.15
2023-01-01T04:25:29.811Z,37.05
2023-01-01T04:27:58.294Z,44.63
2023-01-01T04:30:25.709Z,50.00
2023-01-01T04:32:52.696Z,43.05
2023-01-01T04:35:19.618Z,35.75
2023-01-01T04:37:46.423Z,32.42
2023-01-01T04:40:14.295Z,62.97
2023-01-01T04:42:41.946Z,27.75
2023-01-01T04:45:09.473Z,35.15
2023-01-01T04:47:36.295Z,36.42
2023-01-01T04:50:03.401Z,44.03
2023-01-01T04:52:30.138Z,26.65
2023-01-01T04:54:56.891Z,44.70
2023-01-01T04:57:23.670Z,29.15
2023-01-01T04:59:50.578Z,30.08
2023-01-01T05:02:17.395Z,31.70
2023-01-01T05:04:44.312Z,33.63
2023-01-01T05:07:11.107Z,33.80
2023-01-01T05:09:37.875Z,33.05
2023-01-01T05:12:04.826Z,30.88
2023-01-01T05:14:31.594Z,34.55
2023-01-01T05:16:58.377Z,27.77
2023-01-01T05:19:25.212Z,26.20
2023-01-01T05:21:51.978Z,27.77
2023-01-01T05:24:18.746Z,36.80
2023-01-01T05:26:46.685Z,31.17
2023-01-01T05:29:17.071Z,26.15
2023-01-01T05:31:45.652Z,27.40
2023-01-01T05:34:13.200Z,29.73
2023-01-01T05:36:40.129Z,31.55
2023-01-01T05:39:09.446Z,28.95
2023-01-01T05:41:36.867Z,26.52
2023-01-01T05:44:06.601Z,30.75
2023-01-01T05:46:33.853Z,29.08
2023-01-01T05:49:01.594Z,25.00
2023-01-01T05:53:58.375Z,23.92
2023-01-01T05:56:26.720Z,24.65
2023-01-01T05:58:54.345Z,21.83
2023-01-01T06:01:30.477Z,25.67
2023-01-01T06:03:59.558Z,23.42
2023-01-01T06:06:30.724Z,25.13
2023-01-01T06:09:04.228Z,21.20
2023-01-01T06:11:31.712Z,21.10
2023-01-01T06:14:00.384Z,24.02
2023-01-01T06:16:29.413Z,21.25
2023-01-01T06:18:56.313Z,17.92
2023-01-01T06:21:25.620Z,20.02
2023-01-01T06:23:52.910Z,18.70
2023-01-01T06:26:28.735Z,16.05
2023-01-01T06:28:56.579Z,14.88
2023-01-01T06:31:24.473Z,18.63
2023-01-01T06:33:51.520Z,15.63
2023-01-01T06:36:22.107Z,16.08
2023-01-01T06:38:52.622Z,22.88
2023-01-01T06:41:23.276Z,23.75
2023-01-01T06:43:50.847Z,30.02
2023-01-01T06:46:27.536Z,19.17
2023-01-01T06:48:57.874Z,22.50
2023-01-01T06:51:30.971Z,20.00
2023-01-01T06:54:02.343Z,18.35
2023-01-01T06:56:30.218Z,19.73
2023-01-01T06:58:57.539Z,26.73
2023-01-01T07:01:29.915Z,21.05
2023-01-01T07:04:03.544Z,17.52
2023-01-01T07:06:32.731Z,19.20
2023-01-01T07:08:59.624Z,16.90
2023-01-01T07:11:27.192Z,14.93
2023-01-01T07:13:54.590Z,14.18
2023-01-01T07:16:23.006Z,16.25
2023-01-01T07:18:50.891Z,17.83
2023-01-01T07:21:45.280Z,19.00
2023-01-01T07:24:14.604Z,26.00
2023-01-01T07:26:41.684Z,17.90
2023-01-01T07:29:09.034Z,18.65
2023-01-01T07:31:41.500Z,20.23
2023-01-01T07:34:13.524Z,18.83
2023-01-01T07:36:41.300Z,19.10
2023-01-01T07:39:08.356Z,14.07
2023-01-01T07:41:35.215Z,13.73
2023-01-01T07:44:02.183Z,13.63
2023-01-01T07:46:29.233Z,17.58
2023-01-01T07:48:57.132Z,16.63
2023-01-01T07:51:24.011Z,15.63
2023-01-01T07:53:50.818Z,18.55
2023-01-01T07:56:17.932Z,14.93
2023-01-01T07:58:44.732Z,15.73
2023-01-01T08:01:15.049Z,12.85
2023-01-01T08:03:42.157Z,14.65
2023-01-01T08:06:12.065Z,16.95
2023-01-01T08:08:39.525Z,15.75
2023-01-01T08:11:06.585Z,17.98
2023-01-01T08:13:33.420Z,18.52
2023-01-01T08:16:00.463Z,23.25
2023-01-01T08:18:27.451Z,17.83
2023-01-01T08:20:54.430Z,19.00
2023-01-01T08:23:21.285Z,19.27
2023-01-01T08:25:48.114Z,22.77
2023-01-01T08:28:14.917Z,17.73
2023-01-01T08:30:41.735Z,20.10
2023-01-01T08:33:08.521Z,17.50
2023-01-01T08:35:40.928Z,20.27
2023-01-01T08:38:10.199Z,19.88
2023-01-01T08:40:37.702Z,29.35
2023-01-01T08:43:04.509Z,18.88
2023-01-01T08:45:31.254Z,20.70
2023-01-01T08:47:58.057Z,19.02
2023-01-01T08:50:24.873Z,22.73
2023-01-01T08:52:51.798Z,21.70
2023-01-01T08:55:20.062Z,19.23
2023-01-01T08:57:47.048Z,21.73
2023-01-01T09:00:14.465Z,19.90
2023-01-01T09:02:41.275Z,19.95
2023-01-01T09:05:09.029Z,30.10
2023-01-01T09:07:35.929Z,19.42
2023-01-01T09:10:02.727Z,18.73
2023-01-01T09:12:30.207Z,21.10
2023-01-01T09:14:57.032Z,19.33
2023-01-01T09:17:23.788Z,18.77
2023-01-01T09:19:50.651Z,23.45
2023-01-01T09:22:17.435Z,23.73
2023-01-01T09:24:44.164Z,20.65
2023-01-01T09:27:10.975Z,22.27
2023-01-01T09:29:37.756Z,24.33
2023-01-01T09:32:04.933Z,25.55
2023-01-01T09:34:31.774Z,21.50
2023-01-01T09:36:58.563Z,60.25
2023-01-01T09:39:25.289Z,48.13
2023-01-01T09:41:55.228Z,71.07
2023-01-01T09:44:45.692Z,51.28
2023-01-01T09:47:41.672Z,44.08
2023-01-01T09:50:18.787Z,38.08
2023-01-01T09:53:03.701Z,41.17
2023-01-01T09:55:53.179Z,36.88
2023-01-01T09:58:26.657Z,37.03
2023-01-01T10:01:00.692Z,36.83
2023-01-01T10:03:49.736Z,37.58
2023-01-01T10:06:24.722Z,43.65
2023-01-01T10:09:17.507Z,35.63
2023-01-01T10:12:26.171Z,34.50
2023-01-01T10:15:03.726Z,28.20
2023-01-01T10:17:47.235Z,28.50
2023-01-01T10:20:47.148Z,22.67
2023-01-01T10:23:29.152Z,26.08
2023-01-01T10:25:58.633Z,25.85
2023-01-01T10:28:42.876Z,17.83
2023-01-01T10:31:33.264Z,18.95
2023-01-01T10:34:13.660Z,21.23
2023-01-01T10:36:40.539Z,21.25
2023-01-01T10:39:07.769Z,17.10
2023-01-01T10:41:34.628Z,19.98
2023-01-01T10:44:01.619Z,19.80
2023-01-01T10:46:32.189Z,12.48
2023-01-01T10:49:12.522Z,16.55
2023-01-01T10:51:48.582Z,17.63
2023-01-01T10:54:37.845Z,8.35
2023-01-01T10:57:37.909Z,7.40
2023-01-01T11:00:22.305Z,4.88
2023-01-01T11:03:13.997Z,4.63
2023-01-01T11:05:40.871Z,3.78
2023-01-01T11:08:19.332Z,5.18
2023-01-01T11:10:52.200Z,2.67
2023-01-01T11:13:20.699Z,6.85
2023-01-01T11:15:47.982Z,2.45
2023-01-01T11:18:38.192Z,4.35
2023-01-01T11:21:07.000Z,3.65
2023-01-01T11:23:39.859Z,4.32
2023-01-01T11:26:21.974Z,3.38
2023-01-01T11:29:28.688Z,18.10
2023-01-01T11:31:58.204Z,23.50
2023-01-01T11:34:38.675Z,8.23
2023-01-01T11:37:25.208Z,8.68
2023-01-01T11:39:55.135Z,4.07
2023-01-01T11:42:29.354Z,2.40
2023-01-01T11:45:21.248Z,3.22
2023-01-01T11:47:56.793Z,6.05
2023-01-01T11:50:34.047Z,7.15
2023-01-01T11:53:22.197Z,7.38
2023-01-01T11:56:15.165Z,3.58
2023-01-01T11:58:58.316Z,3.80
2023-01-01T12:01:52.908Z,3.53
2023-01-01T12:04:25.439Z,3.70
2023-01-01T12:07:05.548Z,6.85
2023-01-01T12:09:53.404Z,5.88
2023-01-01T12:12:35.997Z,5.47
2023-01-01T12:15:19.088Z,4.93
2023-01-01T12:18:13.896Z,4.10
2023-01-01T12:21:19.859Z,10.10
2023-01-01T12:23:47.060Z,8.50
2023-01-01T12:26:24.265Z,8.23
2023-01-01T12:29:28.554Z,6.80
2023-01-01T12:32:05.544Z,5.68
2023-01-01T12:34:53.360Z,5.07
2023-01-01T12:37:25.706Z,8.05
2023-01-01T12:40:42.851Z,9.10
2023-01-01T12:43:41.383Z,6.90
2023-01-01T12:46:56.202Z,13.07
2023-01-01T12:49:47.524Z,8.63
2023-01-01T12:52:53.503Z,20.65
2023-01-01T12:55:51.016Z,8.13
2023-01-01T12:59:05.446Z,12.23
2023-01-01T13:01:35.339Z,12.57
2023-01-01T13:04:18.548Z,10.35
2023-01-01T13:07:04.476Z,7.13
2023-01-01T13:09:36.717Z,11.55
2023-01-01T13:12:15.765Z,18.07
2023-01-01T13:14:49.675Z,21.33
2023-01-01T13:17:26.879Z,24.10
2023-01-01T13:20:21.414Z,32.90
2023-01-01T13:22:48.629Z,27.75
2023-01-01T13:25:16.159Z,19.00
2023-01-01T13:27:58.238Z,17.05
2023-01-01T13:30:37.523Z,27.67
2023-01-01T13:33:31.271Z,8.63
2023-01-01T13:36:13.095Z,4.43
2023-01-01T13:38:54.758Z,6.25
2023-01-01T13:41:27.740Z,5.35
2023-01-01T13:46:44.624Z,3.38
2023-01-01T13:49:52.124Z,8.02
2023-01-01T13:52:42.913Z,10.70
2023-01-01T13:55:56.060Z,7.47
2023-01-01T13:58:44.587Z,6.87
2023-01-01T14:01:29.545Z,3.60
2023-01-01T14:03:58.505Z,6.00
2023-01-01T14:06:42.508Z,5.63
2023-01-01T14:09:15.468Z,2.95
2023-01-01T14:14:25.086Z,3.08
2023-01-01T14:17:00.183Z,4.15
2023-01-01T14:19:28.265Z,3.40
2023-01-01T14:21:55.793Z,5.25
2023-01-01T14:24:25.076Z,4.53
2023-01-01T14:26:52.782Z,7.93
2023-01-01T14:29:31.221Z,4.68
2023-01-01T14:32:01.266Z,3.58
2023-01-01T14:34:33.388Z,5.30
2023-01-01T14:37:03.734Z,11.45
2023-01-01T14:39:35.595Z,3.72
2023-01-01T14:42:09.423Z,2.42
2023-01-01T14:44:49.555Z,6.20
2023-01-01T14:47:36.583Z,5.43
2023-01-01T14:50:13.463Z,2.60
2023-01-01T14:52:40.452Z,11.23
2023-01-01T14:55:08.559Z,4.05
2023-01-01T14:57:37.511Z,7.60
2023-01-01T15:00:26.697Z,5.07
2023-01-01T15:02:53.644Z,3.45
2023-01-01T15:05:23.350Z,3.65
2023-01-01T15:08:02.704Z,3.05
2023-01-01T15:10:35.183Z,4.05
2023-01-01T15:13:06.682Z,2.42
2023-01-01T15:15:46.542Z,3.10
2023-01-01T15:18:46.204Z,3.67
2023-01-01T15:21:31.156Z,4.97
2023-01-01T15:24:23.961Z,4.07
2023-01-01T15:26:54.099Z,4.82
2023-01-01T15:29:34.321Z,4.53
2023-01-01T15:32:14.071Z,8.35
2023-01-01T15:34:50.193Z,2.75
2023-01-01T15:37:42.874Z,2.47
2023-01-01T15:40:15.781Z,3.93
2023-01-01T15:42:57.428Z,4.45
2023-01-01T15:45:40.852Z,4.88
2023-01-01T15:48:10.444Z,12.05
2023-01-01T15:50:50.385Z,3.83
2023-01-01T15:53:27.626Z,1.65
2023-01-01T15:56:09.519Z,2.17
2023-01-01T15:58:42.289Z,6.50
2023-01-01T16:01:15.192Z,1.88
2023-01-01T16:03:44.799Z,2.72
2023-01-01T16:06:21.830Z,5.63
2023-01-01T16:08:48.945Z,4.03
2023-01-01T16:11:15.859Z,8.07
2023-01-01T16:13:42.666Z,5.43
2023-01-01T16:16:39.818Z,7.45
2023-01-01T16:19:15.123Z,9.68
2023-01-01T16:21:41.843Z,8.20
2023-01-01T16:24:14.494Z,4.18
2023-01-01T16:26:45.648Z,15.05
2023-01-01T16:29:12.499Z,19.45
2023-01-01T16:31:40.208Z,12.57
2023-01-01T16:34:07.439Z,11.60
2023-01-01T16:36:34.285Z,14.93
2023-01-01T16:39:01.404Z,10.10
2023-01-01T16:41:31.340Z,14.13
2023-01-01T16:43:58.170Z,24.73
2023-01-01T16:46:26.695Z,19.67
2023-01-01T16:48:54.235Z,13.90
2023-01-01T16:51:28.574Z,12.77
2023-01-01T16:53:55.954Z,14.45
2023-01-01T16:56:22.812Z,9.30
2023-01-01T16:58:52.389Z,9.75
2023-01-01T17:01:23.527Z,15.57
2023-01-01T17:03:51.125Z,9.68
2023-01-01T17:06:19.029Z,21.80
2023-01-01T17:08:45.771Z,14.68
2023-01-01T17:11:16.891Z,16.42
2023-01-01T17:13:47.121Z,22.08
2023-01-01T17:16:21.203Z,20.25
2023-01-01T17:21:40.068Z,14.32
2023-01-01T17:24:07.131Z,15.27
2023-01-01T17:26:34.014Z,25.75
2023-01-01T17:29:03.044Z,25.00
2023-01-01T17:31:30.273Z,20.73
2023-01-01T17:33:58.206Z,19.40
2023-01-01T17:36:28.450Z,15.38
2023-01-01T17:38:55.436Z,17.38
2023-01-01T17:41:23.462Z,11.93
2023-01-01T17:43:51.996Z,17.08
2023-01-01T17:46:22.288Z,11.93
2023-01-01T17:48:49.780Z,12.98
2023-01-01T17:51:18.605Z,15.13
2023-01-01T17:53:45.916Z,14.43
2023-01-01T17:56:15.691Z,8.52
2023-01-01T17:58:44.670Z,11.90
2023-01-01T18:01:11.431Z,6.25
2023-01-01T18:03:40.369Z,2.95
2023-01-01T18:06:08.066Z,2.25
2023-01-01T18:08:34.872Z,4.80
2023-01-01T18:11:01.639Z,16.45
2023-01-01T18:13:28.483Z,74.53
2023-01-01T18:16:03.721Z,72.30
2023-01-01T18:18:33.531Z,152.10
2023-01-01T18:21:19.539Z,98.18
2023-01-01T18:23:46.940Z,110.20
2023-01-01T18:26:13.693Z,28.00
2023-01-01T18:28:40.490Z,28.73
2023-01-01T18:31:10.492Z,27.52
2023-01-01T18:36:12.167Z,18.83
2023-01-01T18:38:40.217Z,17.23
2023-01-01T18:41:49.177Z,14.43
2023-01-01T18:44:26.815Z,14.65
2023-01-01T18:47:04.176Z,25.50
2023-01-01T18:49:32.371Z,16.63
2023-01-01T18:52:08.147Z,18.45
2023-01-01T18:54:35.573Z,25.80
2023-01-01T18:57:28.816Z,19.52
2023-01-01T18:59:58.857Z,19.73
2023-01-01T19:02:39.426Z,15.60
2023-01-01T19:05:34.692Z,17.50
2023-01-01T19:08:07.253Z,13.90
2023-01-01T19:10:55.482Z,18.17
2023-01-01T19:13:24.818Z,15.23
2023-01-01T19:16:11.485Z,17.58
2023-01-01T19:18:44.530Z,15.90
2023-01-01T19:21:11.213Z,12.35
2023-01-01T19:23:50.293Z,14.80
2023-01-01T19:26:23.304Z,10.98
2023-01-01T19:31:21.651Z,9.27
2023-01-01T19:33:49.110Z,6.50
2023-01-01T19:36:16.040Z,11.57
2023-01-01T19:38:44.174Z,8.65
2023-01-01T19:41:11.496Z,4.85
2023-01-01T19:43:38.931Z,5.65
2023-01-01T19:46:05.884Z,5.32
2023-01-01T19:48:32.797Z,5.20
2023-01-01T19:50:59.636Z,3.00
2023-01-01T19:53:26.423Z,3.38
2023-01-01T19:55:53.149Z,5.97
2023-01-01T19:58:20.110Z,8.18
2023-01-01T20:00:46.908Z,6.10
2023-01-01T20:06:00.598Z,9.52
2023-01-01T20:08:28.666Z,6.95
2023-01-01T20:10:55.472Z,25.10
2023-01-01T20:13:22.394Z,14.25
2023-01-01T20:15:49.197Z,16.02
2023-01-01T20:18:15.952Z,13.75
2023-01-01T20:21:02.751Z,20.73
2023-01-01T20:23:29.654Z,14.27
2023-01-01T20:25:56.400Z,7.93
2023-01-01T20:28:41.604Z,8.20
2023-01-01T20:31:08.576Z,6.35
2023-01-01T20:33:35.391Z,9.05
2023-01-01T20:36:20.598Z,5.90
2023-01-01T20:38:47.326Z,4.10
2023-01-01T20:41:26.057Z,3.88
2023-01-01T20:43:59.756Z,3.72
2023-01-01T20:46:26.575Z,8.57
2023-01-01T20:48:53.927Z,10.73
2023-01-01T20:51:20.714Z,6.15
2023-01-01T20:53:47.639Z,10.20
2023-01-01T20:56:14.379Z,12.10
2023-01-01T20:58:47.655Z,8.20
2023-01-01T21:01:16.149Z,10.75
2023-01-01T21:03:42.950Z,8.68
2023-01-01T21:06:09.746Z,16.60
2023-01-01T21:08:36.510Z,11.65
2023-01-01T21:11:03.481Z,9.05
2023-01-01T21:13:30.388Z,11.93
2023-01-01T21:16:15.563Z,13.18
2023-01-01T21:18:42.701Z,10.00
2023-01-01T21:21:22.565Z,12.80
2023-01-01T21:23:51.294Z,18.00
2023-01-01T21:26:27.525Z,19.60
2023-01-01T21:28:55.090Z,16.05
2023-01-01T21:31:22.072Z,17.67
2023-01-01T21:33:48.824Z,11.90
2023-01-01T21:36:20.188Z,11.00
2023-01-01T21:38:49.237Z,16.70
2023-01-01T21:41:25.290Z,13.07
2023-01-01T21:43:58.373Z,13.10
2023-01-01T21:46:25.127Z,19.55
2023-01-01T21:49:15.513Z,9.57
2023-01-01T21:51:58.675Z,8.18
2023-01-01T21:57:18.968Z,4.13
2023-01-01T21:59:50.717Z,3.50
2023-01-01T22:02:37.874Z,5.63
2023-01-01T22:05:30.308Z,5.13
2023-01-01T22:07:59.159Z,11.20
2023-01-01T22:10:35.841Z,6.28
2023-01-01T22:13:03.220Z,9.63
2023-01-01T22:15:41.132Z,4.95
2023-01-01T22:18:07.751Z,5.35
2023-01-01T22:20:39.294Z,4.65
2023-01-01T22:23:40.375Z,4.97
2023-01-01T22:26:29.149Z,7.68
2023-01-01T22:29:20.877Z,7.05
2023-01-01T22:31:49.493Z,5.13
2023-01-01T22:34:22.574Z,5.13
2023-01-01T22:39:29.741Z,3.35
2023-01-01T22:41:56.992Z,3.50
2023-01-01T22:44:26.103Z,5.40
2023-01-01T22:46:53.426Z,9.57
2023-01-01T22:49:32.681Z,5.35
2023-01-01T22:51:59.936Z,4.55
2023-01-01T22:54:26.679Z,8.43
2023-01-01T22:56:53.445Z,4.07
2023-01-01T22:59:20.201Z,3.53
2023-01-01T23:01:47.080Z,2.72
2023-01-01T23:04:13.974Z,1.88
2023-01-01T23:06:40.788Z,2.72
2023-01-01T23:09:08.608Z,3.03
2023-01-01T23:11:35.404Z,6.85
2023-01-01T23:14:21.010Z,2.20
2023-01-01T23:16:47.729Z,2.67
2023-01-01T23:19:14.469Z,3.00
2023-01-01T23:21:45.025Z,3.85
2023-01-01T23:24:17.309Z,2.58
2023-01-01T23:26:44.615Z,3.75
2023-01-01T23:29:12.513Z,4.25
2023-01-01T23:31:40.405Z,3.80
2023-01-01T23:34:07.799Z,13.13
2023-01-01T23:36:35.058Z,9.57
2023-01-01T23:39:01.817Z,7.80
2023-01-01T23:41:28.574Z,7.13
2023-01-01T23:43:55.313Z,5.35
2023-01-01T23:46:22.335Z,4.88
2023-01-01T23:48:49.801Z,6.80
2023-01-01T23:51:17.664Z,9.00
2023-01-01T23:53:44.867Z,4.40
2023-01-01T23:56:12.273Z,5.32
2023-01-01T23:58:39.000Z,3.65
